createdAt,value
2019-01-12T00:00:23.838Z,8.63
2019-01-12T00:02:52.285Z,10.00
2019-01-12T00:05:20.709Z,8.30
2019-01-12T00:07:49.156Z,10.90
2019-01-12T00:10:17.574Z,10.27
2019-01-12T00:12:46.024Z,11.37
2019-01-12T00:15:14.524Z,11.27
2019-01-12T00:17:42.977Z,9.70
2019-01-12T00:20:11.542Z,9.60
2019-01-12T00:22:39.966Z,10.30
2019-01-12T00:25:08.960Z,10.13
2019-01-12T00:27:37.383Z,9.67
2019-01-12T00:30:11.650Z,10.70
2019-01-12T00:32:40.078Z,9.97
2019-01-12T00:35:08.655Z,17.30
2019-01-12T00:37:37.342Z,13.57
2019-01-12T00:40:08.019Z,13.80
2019-01-12T00:42:36.494Z,16.57
2019-01-12T00:45:08.695Z,15.20
2019-01-12T00:47:37.143Z,15.00
2019-01-12T00:50:08.918Z,12.00
2019-01-12T00:52:37.350Z,12.60
2019-01-12T00:55:06.559Z,16.03
2019-01-12T00:57:34.988Z,12.30
2019-01-12T01:00:05.347Z,13.90
2019-01-12T01:02:33.766Z,12.47
2019-01-12T01:05:02.222Z,13.77
2019-01-12T01:07:30.642Z,11.07
2019-01-12T01:09:59.078Z,19.03
2019-01-12T01:12:27.643Z,14.20
2019-01-12T01:14:56.078Z,16.50
2019-01-12T01:17:24.507Z,18.97
2019-01-12T01:19:52.955Z,16.63
2019-01-12T01:22:21.383Z,17.33
2019-01-12T01:24:49.830Z,19.57
2019-01-12T01:27:18.259Z,18.00
2019-01-12T01:29:46.748Z,14.80
2019-01-12T01:32:15.175Z,16.90
2019-01-12T01:34:43.606Z,20.20
2019-01-12T01:37:12.068Z,16.90
2019-01-12T01:39:40.510Z,18.73
2019-01-12T01:42:08.955Z,17.50
2019-01-12T01:44:37.387Z,17.33
2019-01-12T01:47:05.909Z,18.10
2019-01-12T01:49:34.393Z,21.43
2019-01-12T01:52:02.836Z,23.00
2019-01-12T01:54:31.262Z,17.80
2019-01-12T01:56:59.699Z,17.07
2019-01-12T01:59:28.150Z,18.80
2019-01-12T02:01:56.671Z,16.13
2019-01-12T02:04:25.116Z,16.43
2019-01-12T02:06:53.560Z,19.30
2019-01-12T02:09:22.014Z,27.90
2019-01-12T02:11:50.604Z,26.53
2019-01-12T02:14:19.067Z,16.60
2019-01-12T02:16:47.564Z,16.40
2019-01-12T02:19:16.005Z,19.43
2019-01-12T02:21:44.449Z,16.37
2019-01-12T02:24:12.887Z,16.00
2019-01-12T02:26:41.316Z,16.80
2019-01-12T02:29:09.752Z,23.13
2019-01-12T02:31:38.208Z,16.77
2019-01-12T02:34:06.639Z,19.30
2019-01-12T02:36:35.064Z,18.60
2019-01-12T02:39:05.295Z,18.73
2019-01-12T02:41:33.719Z,21.37
2019-01-12T02:44:02.167Z,17.30
2019-01-12T02:46:30.589Z,14.87
2019-01-12T02:48:59.031Z,19.60
2019-01-12T02:51:27.467Z,16.17
2019-01-12T02:53:55.915Z,19.70
2019-01-12T02:56:24.346Z,17.80
2019-01-12T02:58:52.796Z,16.07
2019-01-12T03:01:21.244Z,17.17
2019-01-12T03:03:49.717Z,18.57
2019-01-12T03:06:18.135Z,16.57
2019-01-12T03:08:46.566Z,15.90
2019-01-12T03:11:15.003Z,17.97
2019-01-12T03:13:43.446Z,17.53
2019-01-12T03:16:12.044Z,16.87
2019-01-12T03:18:40.483Z,16.67
2019-01-12T03:21:08.908Z,21.03
2019-01-12T03:23:37.328Z,15.07
2019-01-12T03:26:05.758Z,16.50
2019-01-12T03:28:34.191Z,19.30
2019-01-12T03:31:02.619Z,11.20
2019-01-12T03:33:31.056Z,13.67
2019-01-12T03:35:59.475Z,21.43
2019-01-12T03:38:27.910Z,12.60
2019-01-12T03:40:56.343Z,12.40
2019-01-12T03:43:24.790Z,15.10
2019-01-12T03:45:53.202Z,11.63
2019-01-12T03:48:21.648Z,17.70
2019-01-12T03:50:50.221Z,12.27
2019-01-12T03:53:18.721Z,13.87
2019-01-12T03:55:47.138Z,9.70
2019-01-12T03:58:15.574Z,10.87
2019-01-12T04:00:44.005Z,10.23
2019-01-12T04:03:12.487Z,10.53
2019-01-12T04:05:40.939Z,11.30
2019-01-12T04:08:09.366Z,9.77
2019-01-12T04:10:37.798Z,6.50
2019-01-12T04:13:06.237Z,8.27
2019-01-12T04:15:34.665Z,11.90
2019-01-12T04:18:03.078Z,10.70
2019-01-12T04:20:31.536Z,10.00
2019-01-12T04:22:59.953Z,9.83
2019-01-12T04:25:33.573Z,11.40
2019-01-12T04:27:58.666Z,10.00
2019-01-12T04:30:27.117Z,10.00
2019-01-12T04:32:55.543Z,11.30
2019-01-12T04:35:23.984Z,7.50
2019-01-12T04:37:53.376Z,12.07
2019-01-12T04:40:21.827Z,9.27
2019-01-12T04:42:50.390Z,8.53
2019-01-12T04:45:18.894Z,10.30
2019-01-12T04:47:47.318Z,9.00
2019-01-12T04:50:16.198Z,10.27
2019-01-12T04:52:44.630Z,13.83
2019-01-12T04:55:13.418Z,8.67
2019-01-12T04:57:41.918Z,12.63
2019-01-12T05:00:13.391Z,11.90
2019-01-12T05:02:41.843Z,14.93
2019-01-12T05:05:10.415Z,12.07
2019-01-12T05:07:38.824Z,8.70
2019-01-12T05:10:09.923Z,13.40
2019-01-12T05:12:38.359Z,14.57
2019-01-12T05:15:09.551Z,9.70
2019-01-12T05:17:37.975Z,7.43
2019-01-12T05:20:12.327Z,7.90
2019-01-12T05:22:40.813Z,8.00
2019-01-12T05:25:09.334Z,10.10
2019-01-12T05:27:37.752Z,9.57
2019-01-12T05:30:12.226Z,8.27
2019-01-12T05:32:40.662Z,6.70
2019-01-12T05:35:09.235Z,8.07
2019-01-12T05:37:37.694Z,8.23
2019-01-12T05:40:08.354Z,6.97
2019-01-12T05:42:36.851Z,7.30
2019-01-12T05:45:07.309Z,9.20
2019-01-12T05:47:35.835Z,8.57
2019-01-12T05:50:07.196Z,8.93
2019-01-12T05:52:35.635Z,9.47
2019-01-12T05:55:04.728Z,12.93
2019-01-12T05:57:33.207Z,17.80
2019-01-12T06:00:01.635Z,14.30
2019-01-12T06:02:30.064Z,12.67
2019-01-12T06:04:58.495Z,16.40
2019-01-12T06:07:26.945Z,11.70
2019-01-12T06:09:55.425Z,12.60
2019-01-12T06:12:23.869Z,10.73
2019-01-12T06:14:52.297Z,8.97
2019-01-12T06:17:20.801Z,11.90
2019-01-12T06:19:49.231Z,9.93
2019-01-12T06:22:17.662Z,18.13
2019-01-12T06:24:46.092Z,20.03
2019-01-12T06:27:14.530Z,18.63
2019-01-12T06:29:42.954Z,17.23
2019-01-12T06:32:11.385Z,9.37
2019-01-12T06:34:39.811Z,10.00
2019-01-12T06:37:08.316Z,9.50
2019-01-12T06:39:36.743Z,9.50
2019-01-12T06:42:05.281Z,10.70
2019-01-12T06:44:33.698Z,10.30
2019-01-12T06:47:02.134Z,9.43
2019-01-12T06:49:30.550Z,10.83
2019-01-12T06:51:58.985Z,9.50
2019-01-12T06:54:27.408Z,9.13
2019-01-12T06:56:55.830Z,8.07
2019-01-12T06:59:24.273Z,11.13
2019-01-12T07:01:52.778Z,7.80
2019-01-12T07:04:21.279Z,6.73
2019-01-12T07:06:49.708Z,9.27
2019-01-12T07:09:18.135Z,9.20
2019-01-12T07:11:46.595Z,7.60
2019-01-12T07:14:15.027Z,7.57
2019-01-12T07:16:43.447Z,10.53
2019-01-12T07:19:11.903Z,9.17
2019-01-12T07:21:40.352Z,9.50
2019-01-12T07:24:08.790Z,9.97
2019-01-12T07:26:37.224Z,8.73
2019-01-12T07:29:05.730Z,10.07
2019-01-12T07:31:34.181Z,13.97
2019-01-12T07:34:02.621Z,12.90
2019-01-12T07:36:31.056Z,13.70
2019-01-12T07:38:59.486Z,12.20
2019-01-12T07:41:27.901Z,12.23
2019-01-12T07:43:56.332Z,10.43
2019-01-12T07:46:24.801Z,13.73
2019-01-12T07:48:53.271Z,13.20
2019-01-12T07:51:21.772Z,15.60
2019-01-12T07:53:50.215Z,14.57
2019-01-12T07:56:24.488Z,16.03
2019-01-12T07:58:48.797Z,30.43
2019-01-12T08:01:17.218Z,20.40
2019-01-12T08:03:45.649Z,14.30
2019-01-12T08:06:14.082Z,13.10
2019-01-12T08:08:42.523Z,18.50
2019-01-12T08:11:10.958Z,12.20
2019-01-12T08:13:39.380Z,16.63
2019-01-12T08:16:07.804Z,15.00
2019-01-12T08:18:36.233Z,21.13
2019-01-12T08:21:04.928Z,15.17
2019-01-12T08:23:33.354Z,10.90
2019-01-12T08:26:01.803Z,19.70
2019-01-12T08:28:30.229Z,15.50
2019-01-12T08:30:58.665Z,14.73
2019-01-12T08:33:27.993Z,20.07
2019-01-12T08:35:56.434Z,15.40
2019-01-12T08:38:24.901Z,17.63
2019-01-12T08:40:53.389Z,15.80
2019-01-12T08:43:21.840Z,14.93
2019-01-12T08:45:50.305Z,26.03
2019-01-12T08:48:18.712Z,16.23
2019-01-12T08:50:47.165Z,16.80
2019-01-12T08:53:15.589Z,18.67
2019-01-12T08:55:44.018Z,11.97
2019-01-12T08:58:12.443Z,14.87
2019-01-12T09:00:40.873Z,16.30
2019-01-12T09:03:09.296Z,16.80
2019-01-12T09:05:37.745Z,17.97
2019-01-12T09:08:06.175Z,22.80
2019-01-12T09:10:34.628Z,21.13
2019-01-12T09:13:03.060Z,18.90
2019-01-12T09:15:31.479Z,12.67
2019-01-12T09:17:59.908Z,12.33
2019-01-12T09:20:28.315Z,13.70
2019-01-12T09:22:56.751Z,15.80
2019-01-12T09:25:25.165Z,9.77
2019-01-12T09:27:53.671Z,12.70
2019-01-12T09:30:22.267Z,11.47
2019-01-12T09:32:50.926Z,13.13
2019-01-12T09:35:19.421Z,13.90
2019-01-12T09:37:47.921Z,7.30
2019-01-12T09:40:17.787Z,8.93
2019-01-12T09:42:46.374Z,10.50
2019-01-12T09:45:16.849Z,11.50
2019-01-12T09:47:45.575Z,11.00
2019-01-12T09:50:16.131Z,11.60
2019-01-12T09:52:44.698Z,8.17
2019-01-12T09:55:13.272Z,17.13
2019-01-12T09:57:41.707Z,12.03
2019-01-12T10:00:18.604Z,11.00
2019-01-12T10:02:47.308Z,10.47
2019-01-12T10:05:15.871Z,10.03
2019-01-12T10:07:44.404Z,8.80
2019-01-12T10:10:15.725Z,15.13
2019-01-12T10:12:44.490Z,12.40
2019-01-12T10:15:13.659Z,16.07
2019-01-12T10:17:42.092Z,12.13
2019-01-12T10:20:15.481Z,9.30
2019-01-12T10:22:44.787Z,13.10
2019-01-12T10:25:13.627Z,8.67
2019-01-12T10:27:42.075Z,8.30
2019-01-12T10:30:19.743Z,7.70
2019-01-12T10:32:48.189Z,11.03
2019-01-12T10:35:16.603Z,6.90
2019-01-12T10:37:45.101Z,8.33
2019-01-12T10:40:16.083Z,9.20
2019-01-12T10:42:44.752Z,8.73
2019-01-12T10:45:15.453Z,8.60
2019-01-12T10:47:44.387Z,9.33
2019-01-12T10:50:16.368Z,7.40
2019-01-12T10:52:44.857Z,8.33
2019-01-12T10:55:13.399Z,8.77
2019-01-12T10:57:41.882Z,8.00
2019-01-12T11:00:16.121Z,9.90
2019-01-12T11:02:44.534Z,9.17
2019-01-12T11:05:13.098Z,11.03
2019-01-12T11:07:41.505Z,10.77
2019-01-12T11:10:12.189Z,8.90
2019-01-12T11:12:40.697Z,13.77
2019-01-12T11:15:12.205Z,7.13
2019-01-12T11:17:40.829Z,14.83
2019-01-12T11:20:10.442Z,12.20
2019-01-12T11:22:38.927Z,12.03
2019-01-12T11:25:10.310Z,9.13
2019-01-12T11:27:38.719Z,9.80
2019-01-12T11:30:15.372Z,9.67
2019-01-12T11:32:43.799Z,11.00
2019-01-12T11:35:12.289Z,8.83
2019-01-12T11:37:40.792Z,8.90
2019-01-12T11:40:12.670Z,8.27
2019-01-12T11:42:41.082Z,9.10
2019-01-12T11:45:09.655Z,9.50
2019-01-12T11:47:38.078Z,8.90
2019-01-12T11:50:09.587Z,9.00
2019-01-12T11:52:37.998Z,10.90
2019-01-12T11:55:08.681Z,11.77
2019-01-12T11:57:37.104Z,9.27
2019-01-12T12:00:11.526Z,8.13
2019-01-12T12:02:39.949Z,12.30
2019-01-12T12:05:08.431Z,9.70
2019-01-12T12:07:36.885Z,8.77
2019-01-12T12:10:08.622Z,12.37
2019-01-12T12:12:37.056Z,16.63
2019-01-12T12:15:08.905Z,15.13
2019-01-12T12:17:37.350Z,11.07
2019-01-12T12:20:19.669Z,10.73
2019-01-12T12:22:48.175Z,24.03
2019-01-12T12:25:16.844Z,31.97
2019-01-12T12:27:45.343Z,40.50
2019-01-12T12:30:22.134Z,38.93
2019-01-12T12:32:50.568Z,22.77
2019-01-12T12:35:19.062Z,27.40
2019-01-12T12:37:47.557Z,13.40
2019-01-12T12:40:18.325Z,10.70
2019-01-12T12:42:46.834Z,22.93
2019-01-12T12:45:17.700Z,14.57
2019-01-12T12:47:46.198Z,12.37
2019-01-12T12:50:16.160Z,11.20
2019-01-12T12:52:44.663Z,10.00
2019-01-12T12:55:15.135Z,11.80
2019-01-12T12:57:43.799Z,13.20
2019-01-12T13:00:17.574Z,10.33
2019-01-12T13:02:46.039Z,11.50
2019-01-12T13:05:14.521Z,11.30
2019-01-12T13:07:42.959Z,10.60
2019-01-12T13:10:16.854Z,10.70
2019-01-12T13:12:45.295Z,10.20
2019-01-12T13:15:13.790Z,11.60
2019-01-12T13:17:42.370Z,12.50
2019-01-12T13:20:16.222Z,9.70
2019-01-12T13:22:44.738Z,9.70
2019-01-12T13:25:13.299Z,15.90
2019-01-12T13:27:41.728Z,9.60
2019-01-12T13:30:15.655Z,10.50
2019-01-12T13:32:44.154Z,7.83
2019-01-12T13:35:12.652Z,5.43
2019-01-12T13:37:41.101Z,11.40
2019-01-12T13:40:18.094Z,8.23
2019-01-12T13:42:46.523Z,8.67
2019-01-12T13:45:17.285Z,7.33
2019-01-12T13:47:45.715Z,12.00
2019-01-12T13:50:16.906Z,8.70
2019-01-12T13:52:45.342Z,11.47
2019-01-12T13:55:15.210Z,16.43
2019-01-12T13:57:47.716Z,9.43
2019-01-12T14:00:25.555Z,9.03
2019-01-12T14:02:54.122Z,8.47
2019-01-12T14:05:22.682Z,8.60
2019-01-12T14:07:56.080Z,8.20
2019-01-12T14:10:21.686Z,10.37
2019-01-12T14:12:50.119Z,12.10
2019-01-12T14:15:19.374Z,10.00
2019-01-12T14:17:48.061Z,7.77
2019-01-12T14:20:31.010Z,9.97
2019-01-12T14:22:59.472Z,10.73
2019-01-12T14:25:27.892Z,9.80
2019-01-12T14:27:56.367Z,11.20
2019-01-12T14:30:24.871Z,11.70
2019-01-12T14:32:53.337Z,11.67
2019-01-12T14:35:21.766Z,10.40
2019-01-12T14:37:50.440Z,10.97
2019-01-12T14:40:20.093Z,11.57
2019-01-12T14:42:48.802Z,15.43
2019-01-12T14:45:20.562Z,14.70
2019-01-12T14:47:49.088Z,13.40
2019-01-12T14:50:17.509Z,13.60
2019-01-12T14:52:46.088Z,13.77
2019-01-12T14:55:16.868Z,11.57
2019-01-12T14:57:45.363Z,14.73
2019-01-12T15:00:16.892Z,9.30
2019-01-12T15:02:45.326Z,11.00
2019-01-12T15:05:15.965Z,11.80
2019-01-12T15:07:44.637Z,11.20
2019-01-12T15:10:17.866Z,8.90
2019-01-12T15:12:46.902Z,7.90
2019-01-12T15:15:16.994Z,7.80
2019-01-12T15:17:45.542Z,7.87
2019-01-12T15:20:16.925Z,6.90
2019-01-12T15:22:45.413Z,11.20
2019-01-12T15:25:14.387Z,9.53
2019-01-12T15:27:42.805Z,10.23
2019-01-12T15:30:17.388Z,10.53
2019-01-12T15:32:45.805Z,6.00
2019-01-12T15:35:14.885Z,6.10
2019-01-12T15:37:43.562Z,6.90
2019-01-12T15:40:14.930Z,5.17
2019-01-12T15:42:43.340Z,14.50
2019-01-12T15:45:14.609Z,6.60
2019-01-12T15:47:43.189Z,5.57
2019-01-12T15:50:14.462Z,6.03
2019-01-12T15:52:42.894Z,5.80
2019-01-12T15:55:11.389Z,5.80
2019-01-12T15:57:39.807Z,6.40
2019-01-12T16:00:16.979Z,4.77
2019-01-12T16:02:45.471Z,5.00
2019-01-12T16:05:13.968Z,5.50
2019-01-12T16:07:42.380Z,7.53
2019-01-12T16:10:12.047Z,7.93
2019-01-12T16:12:40.458Z,6.10
2019-01-12T16:15:18.074Z,4.80
2019-01-12T16:17:46.577Z,6.57
2019-01-12T16:20:17.735Z,5.40
2019-01-12T16:22:46.149Z,5.67
2019-01-12T16:25:14.576Z,5.13
2019-01-12T16:27:43.079Z,5.23
2019-01-12T16:30:17.510Z,4.10
2019-01-12T16:32:45.987Z,4.77
2019-01-12T16:35:14.691Z,4.17
2019-01-12T16:37:43.651Z,5.30
2019-01-12T16:40:14.994Z,5.10
2019-01-12T16:42:43.579Z,5.13
2019-01-12T16:45:12.087Z,9.63
2019-01-12T16:47:40.593Z,4.10
2019-01-12T16:50:09.110Z,3.97
2019-01-12T16:52:37.535Z,3.53
2019-01-12T16:55:11.423Z,3.60
2019-01-12T16:57:39.861Z,4.00
2019-01-12T17:00:14.027Z,4.23
2019-01-12T17:02:42.459Z,4.20
2019-01-12T17:05:10.941Z,2.87
2019-01-12T17:07:39.533Z,3.13
2019-01-12T17:10:11.062Z,2.97
2019-01-12T17:12:39.480Z,4.30
2019-01-12T17:15:10.470Z,2.90
2019-01-12T17:17:38.916Z,2.30
2019-01-12T17:20:13.133Z,2.87
2019-01-12T17:22:41.606Z,3.23
2019-01-12T17:25:10.085Z,2.30
2019-01-12T17:27:38.525Z,2.03
2019-01-12T17:30:15.570Z,2.27
2019-01-12T17:32:44.079Z,2.03
2019-01-12T17:35:13.121Z,1.70
2019-01-12T17:37:41.558Z,3.00
2019-01-12T17:40:12.422Z,2.10
2019-01-12T17:42:40.915Z,1.93
2019-01-12T17:45:12.547Z,1.37
2019-01-12T17:47:41.246Z,1.50
2019-01-12T17:50:12.565Z,1.63
2019-01-12T17:52:40.988Z,1.60
2019-01-12T17:55:12.422Z,6.77
2019-01-12T17:57:41.085Z,2.77
2019-01-12T18:00:14.254Z,2.33
2019-01-12T18:02:42.702Z,2.53
2019-01-12T18:05:12.237Z,1.80
2019-01-12T18:07:41.649Z,0.97
2019-01-12T18:10:12.861Z,1.30
2019-01-12T18:12:41.370Z,5.83
2019-01-12T18:15:14.786Z,2.90
2019-01-12T18:17:43.299Z,1.20
2019-01-12T18:20:18.684Z,1.33
2019-01-12T18:22:47.152Z,0.80
2019-01-12T18:25:16.851Z,1.20
2019-01-12T18:27:45.598Z,1.10
2019-01-12T18:30:19.402Z,1.70
2019-01-12T18:32:47.925Z,1.10
2019-01-12T18:35:16.478Z,0.90
2019-01-12T18:37:44.970Z,0.80
2019-01-12T18:40:15.848Z,1.20
2019-01-12T18:42:44.350Z,0.97
2019-01-12T18:45:14.842Z,2.60
2019-01-12T18:47:43.249Z,10.00
2019-01-12T18:50:16.995Z,3.23
2019-01-12T18:52:45.429Z,0.70
2019-01-12T18:55:14.601Z,1.73
2019-01-12T18:57:43.026Z,0.80
2019-01-12T19:00:21.751Z,1.20
2019-01-12T19:02:50.314Z,0.70
2019-01-12T19:05:18.816Z,0.70
2019-01-12T19:07:47.604Z,2.30
2019-01-12T19:10:16.160Z,3.93
2019-01-12T19:12:44.738Z,0.70
2019-01-12T19:15:21.837Z,0.70
2019-01-12T19:17:50.258Z,1.60
2019-01-12T19:20:18.693Z,1.53
2019-01-12T19:22:47.187Z,0.80
2019-01-12T19:25:16.463Z,1.00
2019-01-12T19:27:44.871Z,0.90
2019-01-12T19:30:16.396Z,0.60
2019-01-12T19:32:44.807Z,2.20
2019-01-12T19:35:13.254Z,4.40
2019-01-12T19:37:44.288Z,0.80
2019-01-12T19:40:17.917Z,0.80
2019-01-12T19:42:46.344Z,1.10
2019-01-12T19:45:15.919Z,1.00
2019-01-12T19:47:44.483Z,1.30
2019-01-12T19:50:15.646Z,2.10
2019-01-12T19:52:44.068Z,0.83
2019-01-12T19:55:12.578Z,2.23
2019-01-12T19:57:41.007Z,1.17
2019-01-12T20:00:14.727Z,1.87
2019-01-12T20:02:43.154Z,0.80
2019-01-12T20:05:11.671Z,0.80
2019-01-12T20:07:40.090Z,1.57
2019-01-12T20:10:11.399Z,1.10
2019-01-12T20:12:39.902Z,1.63
2019-01-12T20:15:12.296Z,1.40
2019-01-12T20:17:40.794Z,1.17
2019-01-12T20:20:12.153Z,1.53
2019-01-12T20:22:40.684Z,0.83
2019-01-12T20:25:12.146Z,0.83
2019-01-12T20:27:40.572Z,1.30
2019-01-12T20:30:18.118Z,1.67
2019-01-12T20:33:10.449Z,1.37
2019-01-12T20:35:44.946Z,1.30
2019-01-12T20:38:28.347Z,1.00
2019-01-12T20:41:08.399Z,0.80
2019-01-12T20:44:01.661Z,2.20
2019-01-12T20:46:35.737Z,1.00
2019-01-12T20:49:15.980Z,0.90
2019-01-12T20:51:52.655Z,1.00
2019-01-12T20:54:26.873Z,0.80
2019-01-12T20:57:19.329Z,0.90
2019-01-12T21:00:02.719Z,1.27
2019-01-12T21:02:42.709Z,1.00
2019-01-12T21:05:19.866Z,1.00
2019-01-12T21:07:56.875Z,1.20
2019-01-12T21:10:46.274Z,0.67
2019-01-12T21:13:35.738Z,1.20
2019-01-12T21:16:07.246Z,1.00
2019-01-12T21:18:35.683Z,1.17
2019-01-12T21:21:04.126Z,0.90
2019-01-12T21:23:32.568Z,1.00
2019-01-12T21:26:01.112Z,1.40
2019-01-12T21:28:29.589Z,1.03
2019-01-12T21:30:58.017Z,1.07
2019-01-12T21:33:26.452Z,7.57
2019-01-12T21:35:54.874Z,1.40
2019-01-12T21:38:23.391Z,1.30
2019-01-12T21:40:51.855Z,1.20
2019-01-12T21:43:20.489Z,1.47
2019-01-12T21:45:48.908Z,1.10
2019-01-12T21:48:17.325Z,1.00
2019-01-12T21:50:45.741Z,1.00
2019-01-12T21:53:14.176Z,1.10
2019-01-12T21:55:42.602Z,1.20
2019-01-12T21:58:11.022Z,1.77
2019-01-12T22:00:39.459Z,0.80
2019-01-12T22:03:07.883Z,0.97
2019-01-12T22:05:36.301Z,1.23
2019-01-12T22:08:04.985Z,1.17
2019-01-12T22:10:33.494Z,1.03
2019-01-12T22:13:01.938Z,1.20
2019-01-12T22:15:30.504Z,1.10
2019-01-12T22:17:58.925Z,2.27
2019-01-12T22:20:27.432Z,1.30
2019-01-12T22:22:55.842Z,1.40
2019-01-12T22:25:24.267Z,1.40
2019-01-12T22:27:52.695Z,3.20
2019-01-12T22:30:21.125Z,2.50
2019-01-12T22:32:49.553Z,1.23
2019-01-12T22:35:17.983Z,1.30
2019-01-12T22:37:46.407Z,1.50
2019-01-12T22:40:17.917Z,1.13
2019-01-12T22:42:46.369Z,1.50
2019-01-12T22:45:14.804Z,2.10
2019-01-12T22:47:43.219Z,1.70
2019-01-12T22:50:14.203Z,2.27
2019-01-12T22:52:42.686Z,1.57
2019-01-12T22:55:13.739Z,2.00
2019-01-12T22:57:42.327Z,2.80
2019-01-12T23:00:40.605Z,2.50
2019-01-12T23:03:09.153Z,2.20
2019-01-12T23:05:37.593Z,2.60
2019-01-12T23:08:06.023Z,2.20
2019-01-12T23:10:34.490Z,2.00
2019-01-12T23:13:02.914Z,2.53
2019-01-12T23:15:31.346Z,2.53
2019-01-12T23:17:59.753Z,4.40
2019-01-12T23:20:28.204Z,2.60
2019-01-12T23:22:56.943Z,2.30
2019-01-12T23:25:25.450Z,2.33
2019-01-12T23:27:53.868Z,2.80
2019-01-12T23:30:22.349Z,2.60
2019-01-12T23:32:50.771Z,5.70
2019-01-12T23:35:19.191Z,2.70
2019-01-12T23:37:47.618Z,3.20
2019-01-12T23:40:16.371Z,5.03
2019-01-12T23:42:44.878Z,2.90
2019-01-12T23:45:14.438Z,5.00
2019-01-12T23:47:42.934Z,3.23
2019-01-12T23:50:12.897Z,3.10
2019-01-12T23:52:41.401Z,3.97
2019-01-12T23:55:10.025Z,6.60
2019-01-12T23:57:38.614Z,3.90
